sensor_id;sensor_type;location;lat;lon;timestamp;temperature;humidity
8862;DHT22;4799;50.996;4.754;2023-02-16T00:01:56;5.20;99.90
8862;DHT22;4799;50.996;4.754;2023-02-16T00:04:29;5.10;99.90
8862;DHT22;4799;50.996;4.754;2023-02-16T00:06:56;5.10;99.90
8862;DHT22;4799;50.996;4.754;2023-02-16T00:09:23;5.10;99.90
8862;DHT22;4799;50.996;4.754;2023-02-16T00:11:50;5.10;99.90
8862;DHT22;4799;50.996;4.754;2023-02-16T00:14:36;5.10;99.90
8862;DHT22;4799;50.996;4.754;2023-02-16T00:17:04;5.10;99.90
8862;DHT22;4799;50.996;4.754;2023-02-16T00:19:35;5.10;99.90
8862;DHT22;4799;50.996;4.754;2023-02-16T00:22:02;5.10;99.90
8862;DHT22;4799;50.996;4.754;2023-02-16T00:24:29;5.00;99.90
8862;DHT22;4799;50.996;4.754;2023-02-16T00:26:56;5.00;99.90
8862;DHT22;4799;50.996;4.754;2023-02-16T00:29:34;5.00;99.90
8862;DHT22;4799;50.996;4.754;2023-02-16T00:32:03;5.00;99.90
8862;DHT22;4799;50.996;4.754;2023-02-16T00:34:37;4.90;99.90
8862;DHT22;4799;50.996;4.754;2023-02-16T00:37:10;4.90;99.90
8862;DHT22;4799;50.996;4.754;2023-02-16T00:39:37;4.90;99.90
8862;DHT22;4799;50.996;4.754;2023-02-16T00:42:18;4.90;99.90
8862;DHT22;4799;50.996;4.754;2023-02-16T00:44:49;4.80;99.90
8862;DHT22;4799;50.996;4.754;2023-02-16T00:49:41;4.80;99.90
8862;DHT22;4799;50.996;4.754;2023-02-16T00:55:00;4.80;99.90
8862;DHT22;4799;50.996;4.754;2023-02-16T00:57:30;4.80;99.90
8862;DHT22;4799;50.996;4.754;2023-02-16T01:00:12;4.80;99.90
8862;DHT22;4799;50.996;4.754;2023-02-16T01:02:38;4.80;99.90
8862;DHT22;4799;50.996;4.754;2023-02-16T01:05:04;4.80;99.90
8862;DHT22;4799;50.996;4.754;2023-02-16T01:07:30;4.80;99.90
8862;DHT22;4799;50.996;4.754;2023-02-16T01:10:17;4.70;99.90
8862;DHT22;4799;50.996;4.754;2023-02-16T01:13:02;4.70;99.90
8862;DHT22;4799;50.996;4.754;2023-02-16T01:15:28;4.70;99.90
8862;DHT22;4799;50.996;4.754;2023-02-16T01:17:54;4.70;99.90
8862;DHT22;4799;50.996;4.754;2023-02-16T01:20:22;4.70;99.90
8862;DHT22;4799;50.996;4.754;2023-02-16T01:22:48;4.70;99.90
8862;DHT22;4799;50.996;4.754;2023-02-16T01:25:14;4.70;99.90
8862;DHT22;4799;50.996;4.754;2023-02-16T01:27:40;4.70;99.90
8862;DHT22;4799;50.996;4.754;2023-02-16T01:30:12;4.70;99.90
8862;DHT22;4799;50.996;4.754;2023-02-16T01:32:39;4.70;99.90
8862;DHT22;4799;50.996;4.754;2023-02-16T01:35:05;4.70;99.90
8862;DHT22;4799;50.996;4.754;2023-02-16T01:37:31;4.60;99.90
8862;DHT22;4799;50.996;4.754;2023-02-16T01:39:57;4.60;99.90
8862;DHT22;4799;50.996;4.754;2023-02-16T01:45:14;4.60;99.90
8862;DHT22;4799;50.996;4.754;2023-02-16T01:48:06;4.60;99.90
8862;DHT22;4799;50.996;4.754;2023-02-16T01:50:58;4.60;99.90
8862;DHT22;4799;50.996;4.754;2023-02-16T01:53:36;4.60;99.90
8862;DHT22;4799;50.996;4.754;2023-02-16T01:56:23;4.60;99.90
8862;DHT22;4799;50.996;4.754;2023-02-16T01:58:55;4.60;99.90
8862;DHT22;4799;50.996;4.754;2023-02-16T02:01:39;4.50;99.90
8862;DHT22;4799;50.996;4.754;2023-02-16T02:07:11;4.50;99.90
8862;DHT22;4799;50.996;4.754;2023-02-16T02:10:08;4.50;99.90
8862;DHT22;4799;50.996;4.754;2023-02-16T02:13:06;4.60;99.90
8862;DHT22;4799;50.996;4.754;2023-02-16T02:15:34;4.60;99.90
8862;DHT22;4799;50.996;4.754;2023-02-16T02:18:00;4.60;99.90
8862;DHT22;4799;50.996;4.754;2023-02-16T02:20:44;4.70;99.90
8862;DHT22;4799;50.996;4.754;2023-02-16T02:23:37;4.70;99.90
8862;DHT22;4799;50.996;4.754;2023-02-16T02:39:42;4.90;99.90
8862;DHT22;4799;50.996;4.754;2023-02-16T02:47:42;5.00;99.90
8862;DHT22;4799;50.996;4.754;2023-02-16T02:50:31;5.00;99.90
8862;DHT22;4799;50.996;4.754;2023-02-16T02:53:02;5.00;99.90
8862;DHT22;4799;50.996;4.754;2023-02-16T02:55:32;5.00;99.90
8862;DHT22;4799;50.996;4.754;2023-02-16T02:58:19;5.00;99.90
8862;DHT22;4799;50.996;4.754;2023-02-16T03:01:05;5.00;99.90
8862;DHT22;4799;50.996;4.754;2023-02-16T03:03:34;5.00;99.90
8862;DHT22;4799;50.996;4.754;2023-02-16T03:06:25;5.00;99.90
8862;DHT22;4799;50.996;4.754;2023-02-16T03:09:01;5.00;99.90
8862;DHT22;4799;50.996;4.754;2023-02-16T03:11:29;5.00;99.90
8862;DHT22;4799;50.996;4.754;2023-02-16T03:14:15;5.00;99.90
8862;DHT22;4799;50.996;4.754;2023-02-16T03:16:45;5.10;99.90
8862;DHT22;4799;50.996;4.754;2023-02-16T03:19:13;5.10;99.90
8862;DHT22;4799;50.996;4.754;2023-02-16T03:21:59;5.20;99.90
8862;DHT22;4799;50.996;4.754;2023-02-16T03:24:44;5.20;99.90
8862;DHT22;4799;50.996;4.754;2023-02-16T03:27:32;5.20;99.90
8862;DHT22;4799;50.996;4.754;2023-02-16T03:30:18;5.20;99.90
8862;DHT22;4799;50.996;4.754;2023-02-16T03:32:45;5.20;99.90
8862;DHT22;4799;50.996;4.754;2023-02-16T03:35:12;5.10;99.90
8862;DHT22;4799;50.996;4.754;2023-02-16T03:37:39;5.10;99.90
8862;DHT22;4799;50.996;4.754;2023-02-16T03:40:08;5.10;99.90
8862;DHT22;4799;50.996;4.754;2023-02-16T03:42:55;5.10;99.90
8862;DHT22;4799;50.996;4.754;2023-02-16T03:45:23;5.10;99.90
8862;DHT22;4799;50.996;4.754;2023-02-16T03:47:49;5.00;99.90
8862;DHT22;4799;50.996;4.754;2023-02-16T03:50:15;5.00;99.90
8862;DHT22;4799;50.996;4.754;2023-02-16T03:52:40;5.00;99.90
8862;DHT22;4799;50.996;4.754;2023-02-16T03:55:07;5.00;99.90
8862;DHT22;4799;50.996;4.754;2023-02-16T03:57:33;4.90;99.90
8862;DHT22;4799;50.996;4.754;2023-02-16T03:59:58;5.00;99.90
8862;DHT22;4799;50.996;4.754;2023-02-16T04:02:28;4.90;99.90
8862;DHT22;4799;50.996;4.754;2023-02-16T04:04:54;4.90;99.90
8862;DHT22;4799;50.996;4.754;2023-02-16T04:07:20;5.00;99.90
8862;DHT22;4799;50.996;4.754;2023-02-16T04:09:45;5.00;99.90
8862;DHT22;4799;50.996;4.754;2023-02-16T04:12:12;5.00;99.90
8862;DHT22;4799;50.996;4.754;2023-02-16T04:14:56;5.10;99.90
8862;DHT22;4799;50.996;4.754;2023-02-16T04:17:23;5.10;99.90
8862;DHT22;4799;50.996;4.754;2023-02-16T04:19:49;5.10;99.90
8862;DHT22;4799;50.996;4.754;2023-02-16T04:22:14;5.20;99.90
8862;DHT22;4799;50.996;4.754;2023-02-16T04:24:40;5.30;99.90
8862;DHT22;4799;50.996;4.754;2023-02-16T04:27:06;5.30;99.90
8862;DHT22;4799;50.996;4.754;2023-02-16T04:29:32;5.30;99.90
8862;DHT22;4799;50.996;4.754;2023-02-16T04:31:57;5.40;99.90
8862;DHT22;4799;50.996;4.754;2023-02-16T04:34:23;5.40;99.90
8862;DHT22;4799;50.996;4.754;2023-02-16T04:36:49;5.40;99.90
8862;DHT22;4799;50.996;4.754;2023-02-16T04:39:15;5.40;99.90
8862;DHT22;4799;50.996;4.754;2023-02-16T04:41:41;5.30;99.90
8862;DHT22;4799;50.996;4.754;2023-02-16T04:44:06;5.30;99.90
8862;DHT22;4799;50.996;4.754;2023-02-16T04:46:32;5.30;99.90
8862;DHT22;4799;50.996;4.754;2023-02-16T04:48:58;5.40;99.90
8862;DHT22;4799;50.996;4.754;2023-02-16T04:51:24;5.40;99.90
8862;DHT22;4799;50.996;4.754;2023-02-16T04:53:49;5.40;99.90
8862;DHT22;4799;50.996;4.754;2023-02-16T04:56:15;5.50;99.90
8862;DHT22;4799;50.996;4.754;2023-02-16T04:58:41;5.50;99.90
8862;DHT22;4799;50.996;4.754;2023-02-16T05:01:07;5.50;99.90
8862;DHT22;4799;50.996;4.754;2023-02-16T05:03:33;5.60;99.90
8862;DHT22;4799;50.996;4.754;2023-02-16T05:05:59;5.60;99.90
8862;DHT22;4799;50.996;4.754;2023-02-16T05:08:25;5.60;99.90
8862;DHT22;4799;50.996;4.754;2023-02-16T05:10:51;5.60;99.90
8862;DHT22;4799;50.996;4.754;2023-02-16T05:13:35;5.70;99.90
8862;DHT22;4799;50.996;4.754;2023-02-16T05:16:21;5.70;99.90
8862;DHT22;4799;50.996;4.754;2023-02-16T05:18:48;5.70;99.90
8862;DHT22;4799;50.996;4.754;2023-02-16T05:21:13;5.70;99.90
8862;DHT22;4799;50.996;4.754;2023-02-16T05:23:59;5.80;99.90
8862;DHT22;4799;50.996;4.754;2023-02-16T05:26:26;5.80;99.90
8862;DHT22;4799;50.996;4.754;2023-02-16T05:28:52;5.80;99.90
8862;DHT22;4799;50.996;4.754;2023-02-16T05:31:17;5.80;99.90
8862;DHT22;4799;50.996;4.754;2023-02-16T05:33:43;5.80;99.90
8862;DHT22;4799;50.996;4.754;2023-02-16T05:36:09;5.80;99.90
8862;DHT22;4799;50.996;4.754;2023-02-16T05:38:35;5.80;99.90
8862;DHT22;4799;50.996;4.754;2023-02-16T05:41:01;5.90;99.90
8862;DHT22;4799;50.996;4.754;2023-02-16T05:43:26;5.90;99.90
8862;DHT22;4799;50.996;4.754;2023-02-16T05:45:52;5.90;99.90
8862;DHT22;4799;50.996;4.754;2023-02-16T05:48:18;5.90;99.90
8862;DHT22;4799;50.996;4.754;2023-02-16T05:50:43;5.90;99.90
8862;DHT22;4799;50.996;4.754;2023-02-16T05:53:09;5.90;99.90
8862;DHT22;4799;50.996;4.754;2023-02-16T05:55:35;6.00;99.90
8862;DHT22;4799;50.996;4.754;2023-02-16T05:58:01;6.00;99.90
8862;DHT22;4799;50.996;4.754;2023-02-16T06:00:27;5.90;99.90
8862;DHT22;4799;50.996;4.754;2023-02-16T06:02:52;6.00;99.90
8862;DHT22;4799;50.996;4.754;2023-02-16T06:05:18;6.00;99.90
8862;DHT22;4799;50.996;4.754;2023-02-16T06:07:44;6.00;99.90
8862;DHT22;4799;50.996;4.754;2023-02-16T06:10:10;6.00;99.90
8862;DHT22;4799;50.996;4.754;2023-02-16T06:12:36;6.00;99.90
8862;DHT22;4799;50.996;4.754;2023-02-16T06:15:02;6.10;99.90
8862;DHT22;4799;50.996;4.754;2023-02-16T06:17:28;6.10;99.90
8862;DHT22;4799;50.996;4.754;2023-02-16T06:19:54;6.10;99.90
8862;DHT22;4799;50.996;4.754;2023-02-16T06:22:20;6.10;99.90
8862;DHT22;4799;50.996;4.754;2023-02-16T06:24:45;6.10;99.90
8862;DHT22;4799;50.996;4.754;2023-02-16T06:27:11;6.10;99.90
8862;DHT22;4799;50.996;4.754;2023-02-16T06:29:37;6.20;99.90
8862;DHT22;4799;50.996;4.754;2023-02-16T06:32:03;6.10;99.90
8862;DHT22;4799;50.996;4.754;2023-02-16T06:34:29;6.20;99.90
8862;DHT22;4799;50.996;4.754;2023-02-16T06:36:55;6.20;99.90
8862;DHT22;4799;50.996;4.754;2023-02-16T06:39:20;6.20;99.90
8862;DHT22;4799;50.996;4.754;2023-02-16T06:41:46;6.20;99.90
8862;DHT22;4799;50.996;4.754;2023-02-16T06:44:14;6.20;99.90
8862;DHT22;4799;50.996;4.754;2023-02-16T06:46:45;6.20;99.90
8862;DHT22;4799;50.996;4.754;2023-02-16T06:49:13;6.20;99.90
8862;DHT22;4799;50.996;4.754;2023-02-16T06:51:39;6.20;99.90
8862;DHT22;4799;50.996;4.754;2023-02-16T06:54:06;6.20;99.90
8862;DHT22;4799;50.996;4.754;2023-02-16T06:56:32;6.20;99.90
8862;DHT22;4799;50.996;4.754;2023-02-16T06:58:57;6.30;99.90
8862;DHT22;4799;50.996;4.754;2023-02-16T07:01:23;6.30;99.90
8862;DHT22;4799;50.996;4.754;2023-02-16T07:03:54;6.30;99.90
8862;DHT22;4799;50.996;4.754;2023-02-16T07:06:26;6.30;99.90
8862;DHT22;4799;50.996;4.754;2023-02-16T07:08:53;6.30;99.90
8862;DHT22;4799;50.996;4.754;2023-02-16T07:11:19;6.30;99.90
8862;DHT22;4799;50.996;4.754;2023-02-16T07:13:45;6.30;99.90
8862;DHT22;4799;50.996;4.754;2023-02-16T07:16:12;6.40;99.90
8862;DHT22;4799;50.996;4.754;2023-02-16T07:18:38;6.40;99.90
8862;DHT22;4799;50.996;4.754;2023-02-16T07:21:05;6.40;99.90
8862;DHT22;4799;50.996;4.754;2023-02-16T07:23:31;6.40;99.90
8862;DHT22;4799;50.996;4.754;2023-02-16T07:25:57;6.40;99.90
8862;DHT22;4799;50.996;4.754;2023-02-16T07:28:24;6.50;99.90
8862;DHT22;4799;50.996;4.754;2023-02-16T07:30:50;6.50;99.90
8862;DHT22;4799;50.996;4.754;2023-02-16T07:33:16;6.50;99.90
8862;DHT22;4799;50.996;4.754;2023-02-16T07:35:42;6.60;99.90
8862;DHT22;4799;50.996;4.754;2023-02-16T07:38:08;6.50;99.90
8862;DHT22;4799;50.996;4.754;2023-02-16T07:40:35;6.60;99.90
8862;DHT22;4799;50.996;4.754;2023-02-16T07:43:05;6.60;99.90
8862;DHT22;4799;50.996;4.754;2023-02-16T07:45:31;6.60;99.90
8862;DHT22;4799;50.996;4.754;2023-02-16T07:47:57;6.70;99.90
8862;DHT22;4799;50.996;4.754;2023-02-16T07:50:23;6.70;99.90
8862;DHT22;4799;50.996;4.754;2023-02-16T07:52:49;6.70;99.90
8862;DHT22;4799;50.996;4.754;2023-02-16T07:55:15;6.70;99.90
8862;DHT22;4799;50.996;4.754;2023-02-16T07:57:41;6.80;99.90
8862;DHT22;4799;50.996;4.754;2023-02-16T08:00:07;6.80;99.90
8862;DHT22;4799;50.996;4.754;2023-02-16T08:02:33;6.80;99.90
8862;DHT22;4799;50.996;4.754;2023-02-16T08:04:59;6.90;99.90
8862;DHT22;4799;50.996;4.754;2023-02-16T08:07:25;6.90;99.90
8862;DHT22;4799;50.996;4.754;2023-02-16T08:09:51;6.90;99.90
8862;DHT22;4799;50.996;4.754;2023-02-16T08:12:17;7.00;99.90
8862;DHT22;4799;50.996;4.754;2023-02-16T08:14:44;7.10;99.90
8862;DHT22;4799;50.996;4.754;2023-02-16T08:17:15;7.20;99.90
8862;DHT22;4799;50.996;4.754;2023-02-16T08:19:40;7.30;99.90
8862;DHT22;4799;50.996;4.754;2023-02-16T08:22:08;7.30;99.90
8862;DHT22;4799;50.996;4.754;2023-02-16T08:24:34;7.40;99.90
8862;DHT22;4799;50.996;4.754;2023-02-16T08:27:02;7.40;99.90
8862;DHT22;4799;50.996;4.754;2023-02-16T08:29:29;7.40;99.90
8862;DHT22;4799;50.996;4.754;2023-02-16T08:31:55;7.40;99.90
8862;DHT22;4799;50.996;4.754;2023-02-16T08:34:22;7.40;99.90
8862;DHT22;4799;50.996;4.754;2023-02-16T08:36:54;7.50;99.90
8862;DHT22;4799;50.996;4.754;2023-02-16T08:39:28;7.50;99.90
8862;DHT22;4799;50.996;4.754;2023-02-16T08:41:55;7.50;99.90
8862;DHT22;4799;50.996;4.754;2023-02-16T08:44:23;7.60;99.90
8862;DHT22;4799;50.996;4.754;2023-02-16T08:46:50;7.60;99.90
8862;DHT22;4799;50.996;4.754;2023-02-16T08:49:18;7.70;99.90
8862;DHT22;4799;50.996;4.754;2023-02-16T08:51:50;7.80;99.90
8862;DHT22;4799;50.996;4.754;2023-02-16T08:54:18;7.90;99.90
8862;DHT22;4799;50.996;4.754;2023-02-16T08:56:45;7.90;99.90
8862;DHT22;4799;50.996;4.754;2023-02-16T08:59:17;7.90;99.90
8862;DHT22;4799;50.996;4.754;2023-02-16T09:01:43;8.00;99.90
8862;DHT22;4799;50.996;4.754;2023-02-16T09:04:09;8.00;99.90
8862;DHT22;4799;50.996;4.754;2023-02-16T09:06:37;8.10;99.90
8862;DHT22;4799;50.996;4.754;2023-02-16T09:09:04;8.10;99.90
8862;DHT22;4799;50.996;4.754;2023-02-16T09:11:31;8.10;99.90
8862;DHT22;4799;50.996;4.754;2023-02-16T09:13:57;8.10;99.90
8862;DHT22;4799;50.996;4.754;2023-02-16T09:16:23;8.10;99.90
8862;DHT22;4799;50.996;4.754;2023-02-16T09:18:50;8.10;99.90
8862;DHT22;4799;50.996;4.754;2023-02-16T09:21:19;8.20;99.90
8862;DHT22;4799;50.996;4.754;2023-02-16T09:23:48;8.30;99.90
8862;DHT22;4799;50.996;4.754;2023-02-16T09:26:19;8.30;99.90
8862;DHT22;4799;50.996;4.754;2023-02-16T09:28:46;8.30;99.90
8862;DHT22;4799;50.996;4.754;2023-02-16T09:31:18;8.40;99.90
8862;DHT22;4799;50.996;4.754;2023-02-16T09:34:05;8.50;99.90
8862;DHT22;4799;50.996;4.754;2023-02-16T09:36:32;8.50;99.90
8862;DHT22;4799;50.996;4.754;2023-02-16T09:38:59;8.50;99.90
8862;DHT22;4799;50.996;4.754;2023-02-16T09:47:18;8.70;99.90
8862;DHT22;4799;50.996;4.754;2023-02-16T09:49:46;8.80;99.90
8862;DHT22;4799;50.996;4.754;2023-02-16T09:52:36;8.90;99.90
8862;DHT22;4799;50.996;4.754;2023-02-16T09:55:13;9.00;99.90
8862;DHT22;4799;50.996;4.754;2023-02-16T10:08:24;9.20;99.90
8862;DHT22;4799;50.996;4.754;2023-02-16T10:13:42;9.30;99.90
8862;DHT22;4799;50.996;4.754;2023-02-16T10:16:15;9.40;99.90
8862;DHT22;4799;50.996;4.754;2023-02-16T10:18:48;9.50;99.90
8862;DHT22;4799;50.996;4.754;2023-02-16T10:21:19;9.60;99.90
8862;DHT22;4799;50.996;4.754;2023-02-16T10:26:36;9.90;99.90
8862;DHT22;4799;50.996;4.754;2023-02-16T10:29:22;9.90;99.90
8862;DHT22;4799;50.996;4.754;2023-02-16T10:32:30;10.00;99.90
8862;DHT22;4799;50.996;4.754;2023-02-16T10:45:59;9.70;99.90
8862;DHT22;4799;50.996;4.754;2023-02-16T10:48:26;9.80;99.90
8862;DHT22;4799;50.996;4.754;2023-02-16T10:53:38;10.00;99.90
8862;DHT22;4799;50.996;4.754;2023-02-16T10:59:23;10.10;99.90
8862;DHT22;4799;50.996;4.754;2023-02-16T11:01:55;10.10;99.90
8862;DHT22;4799;50.996;4.754;2023-02-16T11:04:38;10.00;99.90
8862;DHT22;4799;50.996;4.754;2023-02-16T11:07:05;10.10;99.90
8862;DHT22;4799;50.996;4.754;2023-02-16T11:09:33;10.20;99.90
8862;DHT22;4799;50.996;4.754;2023-02-16T11:12:01;10.30;99.90
8862;DHT22;4799;50.996;4.754;2023-02-16T11:14:37;10.40;99.90
8862;DHT22;4799;50.996;4.754;2023-02-16T11:17:09;10.50;99.90
8862;DHT22;4799;50.996;4.754;2023-02-16T11:19:38;10.60;99.90
8862;DHT22;4799;50.996;4.754;2023-02-16T11:22:06;10.80;99.90
8862;DHT22;4799;50.996;4.754;2023-02-16T11:24:37;10.90;99.90
8862;DHT22;4799;50.996;4.754;2023-02-16T11:29:31;11.20;99.90
8862;DHT22;4799;50.996;4.754;2023-02-16T11:31:57;11.40;99.90
8862;DHT22;4799;50.996;4.754;2023-02-16T11:37:09;11.70;99.90
8862;DHT22;4799;50.996;4.754;2023-02-16T11:39:39;11.80;99.90
8862;DHT22;4799;50.996;4.754;2023-02-16T11:42:37;11.90;99.90
8862;DHT22;4799;50.996;4.754;2023-02-16T11:45:29;12.00;99.90
8862;DHT22;4799;50.996;4.754;2023-02-16T11:48:02;12.00;99.90
8862;DHT22;4799;50.996;4.754;2023-02-16T11:50:31;12.10;99.90
8862;DHT22;4799;50.996;4.754;2023-02-16T11:55:45;12.20;99.90
8862;DHT22;4799;50.996;4.754;2023-02-16T11:58:19;12.30;99.90
8862;DHT22;4799;50.996;4.754;2023-02-16T12:06:44;12.50;99.90
8862;DHT22;4799;50.996;4.754;2023-02-16T12:09:32;12.50;99.90
8862;DHT22;4799;50.996;4.754;2023-02-16T12:12:11;12.50;99.90
8862;DHT22;4799;50.996;4.754;2023-02-16T12:20:32;12.40;99.90
8862;DHT22;4799;50.996;4.754;2023-02-16T12:23:34;12.40;99.90
8862;DHT22;4799;50.996;4.754;2023-02-16T12:32:15;12.20;99.90
8862;DHT22;4799;50.996;4.754;2023-02-16T12:35:05;12.20;99.90
8862;DHT22;4799;50.996;4.754;2023-02-16T12:43:47;12.30;99.90
8862;DHT22;4799;50.996;4.754;2023-02-16T12:49:06;12.30;99.90
8862;DHT22;4799;50.996;4.754;2023-02-16T12:52:01;12.30;99.90
8862;DHT22;4799;50.996;4.754;2023-02-16T12:54:40;12.30;99.90
8862;DHT22;4799;50.996;4.754;2023-02-16T12:57:12;12.30;99.90
8862;DHT22;4799;50.996;4.754;2023-02-16T12:59:49;12.30;99.90
8862;DHT22;4799;50.996;4.754;2023-02-16T13:07:40;12.50;99.90
8862;DHT22;4799;50.996;4.754;2023-02-16T13:10:49;12.50;99.90
8862;DHT22;4799;50.996;4.754;2023-02-16T13:13:23;12.50;99.90
8862;DHT22;4799;50.996;4.754;2023-02-16T13:17:07;12.60;99.90
8862;DHT22;4799;50.996;4.754;2023-02-16T13:19:02;12.60;99.90
8862;DHT22;4799;50.996;4.754;2023-02-16T13:21:59;12.60;99.90
8862;DHT22;4799;50.996;4.754;2023-02-16T13:38:11;13.10;99.90
8862;DHT22;4799;50.996;4.754;2023-02-16T13:41:04;13.10;99.90
8862;DHT22;4799;50.996;4.754;2023-02-16T13:43:32;13.10;99.90
8862;DHT22;4799;50.996;4.754;2023-02-16T13:46:04;13.20;99.90
8862;DHT22;4799;50.996;4.754;2023-02-16T13:48:39;13.30;99.90
8862;DHT22;4799;50.996;4.754;2023-02-16T13:51:14;13.30;99.90
8862;DHT22;4799;50.996;4.754;2023-02-16T13:53:42;13.30;99.90
8862;DHT22;4799;50.996;4.754;2023-02-16T13:59:47;13.40;99.90
8862;DHT22;4799;50.996;4.754;2023-02-16T14:01:50;13.40;99.90
8862;DHT22;4799;50.996;4.754;2023-02-16T14:06:47;13.60;99.90
8862;DHT22;4799;50.996;4.754;2023-02-16T14:28:01;14.00;99.90
8862;DHT22;4799;50.996;4.754;2023-02-16T14:30:52;14.10;99.90
8862;DHT22;4799;50.996;4.754;2023-02-16T14:33:28;14.30;99.90
8862;DHT22;4799;50.996;4.754;2023-02-16T14:38:36;14.40;99.90
8862;DHT22;4799;50.996;4.754;2023-02-16T14:47:03;14.30;99.90
8862;DHT22;4799;50.996;4.754;2023-02-16T14:50:04;14.30;99.90
8862;DHT22;4799;50.996;4.754;2023-02-16T14:52:59;14.20;99.90
8862;DHT22;4799;50.996;4.754;2023-02-16T14:58:27;14.00;99.90
8862;DHT22;4799;50.996;4.754;2023-02-16T15:01:14;14.00;99.90
8862;DHT22;4799;50.996;4.754;2023-02-16T15:03:55;14.00;99.90
8862;DHT22;4799;50.996;4.754;2023-02-16T15:06:40;13.90;99.90
8862;DHT22;4799;50.996;4.754;2023-02-16T15:09:20;13.90;99.90
8862;DHT22;4799;50.996;4.754;2023-02-16T15:12:17;13.80;99.90
8862;DHT22;4799;50.996;4.754;2023-02-16T15:14:51;13.80;99.90
8862;DHT22;4799;50.996;4.754;2023-02-16T15:17:34;13.70;99.90
8862;DHT22;4799;50.996;4.754;2023-02-16T15:20:28;13.70;99.90
8862;DHT22;4799;50.996;4.754;2023-02-16T15:22:58;13.70;99.90
8862;DHT22;4799;50.996;4.754;2023-02-16T15:25:32;13.70;99.90
8862;DHT22;4799;50.996;4.754;2023-02-16T15:28:03;13.70;99.90
8862;DHT22;4799;50.996;4.754;2023-02-16T15:30:34;13.70;99.90
8862;DHT22;4799;50.996;4.754;2023-02-16T15:33:10;13.60;99.90
8862;DHT22;4799;50.996;4.754;2023-02-16T15:35:42;13.60;99.90
8862;DHT22;4799;50.996;4.754;2023-02-16T15:38:20;13.50;99.90
8862;DHT22;4799;50.996;4.754;2023-02-16T15:40:50;13.50;99.90
8862;DHT22;4799;50.996;4.754;2023-02-16T15:45:49;13.50;99.90
8862;DHT22;4799;50.996;4.754;2023-02-16T15:48:27;13.50;99.90
8862;DHT22;4799;50.996;4.754;2023-02-16T15:51:15;13.50;99.90
8862;DHT22;4799;50.996;4.754;2023-02-16T15:53:52;13.50;99.90
8862;DHT22;4799;50.996;4.754;2023-02-16T15:58:50;13.40;99.90
8862;DHT22;4799;50.996;4.754;2023-02-16T16:01:36;13.40;99.90
8862;DHT22;4799;50.996;4.754;2023-02-16T16:04:07;13.40;99.90
8862;DHT22;4799;50.996;4.754;2023-02-16T16:06:39;13.30;99.90
8862;DHT22;4799;50.996;4.754;2023-02-16T16:09:05;13.20;99.90
8862;DHT22;4799;50.996;4.754;2023-02-16T16:11:35;13.20;99.90
8862;DHT22;4799;50.996;4.754;2023-02-16T16:14:02;13.00;99.90
8862;DHT22;4799;50.996;4.754;2023-02-16T16:16:30;12.90;99.90
8862;DHT22;4799;50.996;4.754;2023-02-16T16:19:05;12.80;99.90
8862;DHT22;4799;50.996;4.754;2023-02-16T16:21:31;12.70;99.90
8862;DHT22;4799;50.996;4.754;2023-02-16T16:24:04;12.50;99.90
8862;DHT22;4799;50.996;4.754;2023-02-16T16:26:34;12.40;99.90
8862;DHT22;4799;50.996;4.754;2023-02-16T16:29:00;12.40;99.90
8862;DHT22;4799;50.996;4.754;2023-02-16T16:36:20;12.10;99.90
8862;DHT22;4799;50.996;4.754;2023-02-16T16:38:47;12.00;99.90
8862;DHT22;4799;50.996;4.754;2023-02-16T16:41:26;12.00;99.90
8862;DHT22;4799;50.996;4.754;2023-02-16T16:43:54;12.00;99.90
8862;DHT22;4799;50.996;4.754;2023-02-16T16:46:28;11.90;99.90
8862;DHT22;4799;50.996;4.754;2023-02-16T16:48:58;11.90;99.90
8862;DHT22;4799;50.996;4.754;2023-02-16T16:53:57;11.80;99.90
8862;DHT22;4799;50.996;4.754;2023-02-16T16:56:29;11.80;99.90
8862;DHT22;4799;50.996;4.754;2023-02-16T16:58:57;11.80;99.90
8862;DHT22;4799;50.996;4.754;2023-02-16T17:01:25;11.70;99.90
8862;DHT22;4799;50.996;4.754;2023-02-16T17:03:51;11.70;99.90
8862;DHT22;4799;50.996;4.754;2023-02-16T17:06:17;11.60;99.90
8862;DHT22;4799;50.996;4.754;2023-02-16T17:08:44;11.60;99.90
8862;DHT22;4799;50.996;4.754;2023-02-16T17:11:32;11.60;99.90
8862;DHT22;4799;50.996;4.754;2023-02-16T17:14:09;11.50;99.90
8862;DHT22;4799;50.996;4.754;2023-02-16T17:16:42;11.50;99.90
8862;DHT22;4799;50.996;4.754;2023-02-16T17:19:13;11.40;99.90
8862;DHT22;4799;50.996;4.754;2023-02-16T17:21:39;11.40;99.90
8862;DHT22;4799;50.996;4.754;2023-02-16T17:24:05;11.40;99.90
8862;DHT22;4799;50.996;4.754;2023-02-16T17:26:32;11.30;99.90
8862;DHT22;4799;50.996;4.754;2023-02-16T17:28:58;11.30;99.90
8862;DHT22;4799;50.996;4.754;2023-02-16T17:31:24;11.40;99.90
8862;DHT22;4799;50.996;4.754;2023-02-16T17:33:50;11.30;99.90
8862;DHT22;4799;50.996;4.754;2023-02-16T17:36:16;11.30;99.90
8862;DHT22;4799;50.996;4.754;2023-02-16T17:38:43;11.30;99.90
8862;DHT22;4799;50.996;4.754;2023-02-16T17:41:22;11.30;99.90
8862;DHT22;4799;50.996;4.754;2023-02-16T17:43:49;11.30;99.90
8862;DHT22;4799;50.996;4.754;2023-02-16T17:46:15;11.30;99.90
8862;DHT22;4799;50.996;4.754;2023-02-16T17:48:41;11.30;99.90
8862;DHT22;4799;50.996;4.754;2023-02-16T17:51:14;11.30;99.90
8862;DHT22;4799;50.996;4.754;2023-02-16T17:53:40;11.30;99.90
8862;DHT22;4799;50.996;4.754;2023-02-16T17:56:09;11.30;99.90
8862;DHT22;4799;50.996;4.754;2023-02-16T17:58:36;11.30;99.90
8862;DHT22;4799;50.996;4.754;2023-02-16T18:01:02;11.30;99.90
8862;DHT22;4799;50.996;4.754;2023-02-16T18:03:28;11.30;99.90
8862;DHT22;4799;50.996;4.754;2023-02-16T18:05:55;11.30;99.90
8862;DHT22;4799;50.996;4.754;2023-02-16T18:08:21;11.30;99.90
8862;DHT22;4799;50.996;4.754;2023-02-16T18:10:50;11.30;99.90
8862;DHT22;4799;50.996;4.754;2023-02-16T18:13:16;11.30;99.90
8862;DHT22;4799;50.996;4.754;2023-02-16T18:15:45;11.30;99.90
8862;DHT22;4799;50.996;4.754;2023-02-16T18:18:16;11.30;99.90
8862;DHT22;4799;50.996;4.754;2023-02-16T18:20:42;11.20;99.90
8862;DHT22;4799;50.996;4.754;2023-02-16T18:23:08;11.30;99.90
8862;DHT22;4799;50.996;4.754;2023-02-16T18:25:34;11.30;99.90
8862;DHT22;4799;50.996;4.754;2023-02-16T18:28:00;11.30;99.90
8862;DHT22;4799;50.996;4.754;2023-02-16T18:30:26;11.30;99.90
8862;DHT22;4799;50.996;4.754;2023-02-16T18:32:52;11.30;99.90
8862;DHT22;4799;50.996;4.754;2023-02-16T18:35:18;11.20;99.90
8862;DHT22;4799;50.996;4.754;2023-02-16T18:37:45;11.30;99.90
8862;DHT22;4799;50.996;4.754;2023-02-16T18:40:16;11.20;99.90
8862;DHT22;4799;50.996;4.754;2023-02-16T18:42:44;11.30;99.90
8862;DHT22;4799;50.996;4.754;2023-02-16T18:45:10;11.30;99.90
8862;DHT22;4799;50.996;4.754;2023-02-16T18:47:36;11.30;99.90
8862;DHT22;4799;50.996;4.754;2023-02-16T18:50:03;11.30;99.90
8862;DHT22;4799;50.996;4.754;2023-02-16T18:52:29;11.30;99.90
8862;DHT22;4799;50.996;4.754;2023-02-16T18:54:55;11.30;99.90
8862;DHT22;4799;50.996;4.754;2023-02-16T18:57:21;11.30;99.90
8862;DHT22;4799;50.996;4.754;2023-02-16T18:59:47;11.20;99.90
8862;DHT22;4799;50.996;4.754;2023-02-16T19:02:13;11.30;99.90
8862;DHT22;4799;50.996;4.754;2023-02-16T19:04:39;11.20;99.90
8862;DHT22;4799;50.996;4.754;2023-02-16T19:07:05;11.20;99.90
8862;DHT22;4799;50.996;4.754;2023-02-16T19:09:31;11.20;99.90
8862;DHT22;4799;50.996;4.754;2023-02-16T19:11:56;11.20;99.90
8862;DHT22;4799;50.996;4.754;2023-02-16T19:14:22;11.10;99.90
8862;DHT22;4799;50.996;4.754;2023-02-16T19:16:48;11.10;99.90
8862;DHT22;4799;50.996;4.754;2023-02-16T19:19:14;11.10;99.90
8862;DHT22;4799;50.996;4.754;2023-02-16T19:21:40;11.10;99.90
8862;DHT22;4799;50.996;4.754;2023-02-16T19:24:07;11.10;99.90
8862;DHT22;4799;50.996;4.754;2023-02-16T19:26:33;11.10;99.90
8862;DHT22;4799;50.996;4.754;2023-02-16T19:28:59;11.10;99.90